Cleveland, Ohio
Traffic Map
Current Weather Conditions
Cleveland, Ohio
Overcast
Overcast

Feels Like: 4°
Wind Chill: Ceiling: 4700
Heat Index: Visibility: 10mi
Dew Point: Wind: 7mph
Humidity: 73% Direction: 210° (SSW)
Pressure: 29.99in Gusts: 0mph
Raw Report DataKCLE 310851Z 21006KT 10SM OVC047 07/02 A2999 RMK AO2 SLP159 T00670022 57014
Traffic Incident Summary
Active as of:
Severity:
Category:
InformationThere was an issue retrieving the traffic information for this location. Please try a different location or try again shortly.
Advertisements
Track Severe Weather on mobile